createdAt,value
2023-04-05T00:02:16.861Z,98463.00
2023-04-05T00:06:18.480Z,98466.00
2023-04-05T00:10:19.784Z,98457.00
2023-04-05T00:14:20.870Z,98470.00
2023-04-05T00:18:23.037Z,98462.00
2023-04-05T00:22:25.492Z,98467.00
2023-04-05T00:26:27.159Z,98458.00
2023-04-05T00:30:28.468Z,98471.00
2023-04-05T00:34:29.545Z,98457.00
2023-04-05T00:38:30.646Z,98460.00
2023-04-05T00:42:31.624Z,98453.00
2023-04-05T00:46:36.669Z,98453.00
2023-04-05T00:50:38.353Z,98452.00
2023-04-05T00:54:40.935Z,98442.00
2023-04-05T00:58:42.261Z,98433.00
2023-04-05T01:03:00.975Z,98434.00
2023-04-05T01:07:21.541Z,98419.00
2023-04-05T01:11:23.750Z,98423.00
2023-04-05T01:15:24.946Z,98423.00
2023-04-05T01:19:28.954Z,98413.00
2023-04-05T01:23:54.646Z,98418.00
2023-04-05T01:27:59.477Z,98417.00
2023-04-05T01:32:13.370Z,98409.00
2023-04-05T01:36:30.647Z,98411.00
2023-04-05T01:40:32.755Z,98409.00
2023-04-05T01:44:33.951Z,98413.00
2023-04-05T01:48:35.166Z,98289.00
2023-04-05T01:52:36.129Z,98400.00
2023-04-05T01:56:37.319Z,98401.00
2023-04-05T02:00:38.410Z,98411.00
2023-04-05T02:04:39.640Z,98397.00
2023-04-05T02:08:40.616Z,98389.00
2023-04-05T02:12:41.749Z,98391.00
2023-04-05T02:16:44.276Z,98392.00
2023-04-05T02:20:46.884Z,98384.00
2023-04-05T02:24:47.918Z,98391.00
2023-04-05T02:28:48.921Z,98396.00
2023-04-05T02:32:50.103Z,98399.00
2023-04-05T02:36:51.160Z,98386.00
2023-04-05T02:45:02.886Z,98393.00
2023-04-05T02:49:04.004Z,98393.00
2023-04-05T02:53:05.317Z,98383.00
2023-04-05T02:57:08.193Z,98383.00
2023-04-05T03:01:09.361Z,98380.00
2023-04-05T03:05:10.333Z,98387.00
2023-04-05T03:09:11.609Z,98375.00
2023-04-05T03:13:14.311Z,98374.00
2023-04-05T03:17:15.284Z,98377.00
2023-04-05T03:21:17.695Z,98384.00
2023-04-05T03:25:19.078Z,98375.00
2023-04-05T03:29:20.169Z,98385.00
2023-04-05T03:33:21.273Z,98373.00
2023-04-05T03:37:22.277Z,98381.00
2023-04-05T03:41:23.275Z,98373.00
2023-04-05T03:45:24.849Z,98370.00
2023-04-05T03:49:25.919Z,98357.00
2023-04-05T03:53:28.820Z,98350.00
2023-04-05T03:57:30.365Z,98359.00
2023-04-05T04:01:31.770Z,98354.00
2023-04-05T04:05:34.812Z,98353.00
2023-04-05T04:09:36.059Z,98354.00
2023-04-05T04:13:37.214Z,98348.00
2023-04-05T04:17:39.018Z,98351.00
2023-04-05T04:21:40.027Z,98359.00
2023-04-05T04:25:43.064Z,98356.00
2023-04-05T04:29:46.874Z,98359.00
2023-04-05T04:33:51.058Z,98361.00
2023-04-05T04:37:57.167Z,98359.00
2023-04-05T04:41:58.800Z,98363.00
2023-04-05T04:45:59.995Z,98353.00
2023-04-05T04:50:00.972Z,98355.00
2023-04-05T04:54:02.098Z,98369.00
2023-04-05T04:58:08.161Z,98349.00
2023-04-05T05:02:10.621Z,98347.00
2023-04-05T05:06:15.544Z,98349.00
2023-04-05T05:10:16.812Z,98355.00
2023-04-05T05:14:17.935Z,98355.00
2023-04-05T05:18:18.924Z,98351.00
2023-04-05T05:22:19.947Z,98363.00
2023-04-05T05:26:21.071Z,98357.00
2023-04-05T05:30:22.323Z,98361.00
2023-04-05T05:34:23.699Z,98360.00
2023-04-05T05:38:24.894Z,98355.00
2023-04-05T05:42:31.498Z,98353.00
2023-04-05T05:46:32.966Z,98358.00
2023-04-05T05:50:34.049Z,98361.00
2023-04-05T05:54:35.198Z,98365.00
2023-04-05T05:58:37.250Z,98365.00
2023-04-05T06:02:38.276Z,98367.00
2023-04-05T06:06:41.755Z,98374.00
2023-04-05T06:10:43.035Z,98370.00
2023-04-05T06:14:44.025Z,98371.00
2023-04-05T06:18:45.443Z,98365.00
2023-04-05T06:22:46.533Z,98362.00
2023-04-05T06:26:49.613Z,98364.00
2023-04-05T06:30:50.755Z,98370.00
2023-04-05T06:34:52.856Z,98376.00
2023-04-05T06:38:54.037Z,98372.00
2023-04-05T06:42:55.237Z,98377.00
2023-04-05T06:46:56.373Z,98244.00
2023-04-05T06:50:58.675Z,98377.00
2023-04-05T06:55:00.200Z,98369.00
2023-04-05T06:59:02.289Z,98375.00
2023-04-05T07:03:03.580Z,98371.00
2023-04-05T07:07:05.735Z,98368.00
2023-04-05T07:11:06.706Z,98357.00
2023-04-05T07:15:08.534Z,98356.00
2023-04-05T07:19:09.754Z,98356.00
2023-04-05T07:23:10.792Z,98346.00
2023-04-05T07:27:12.059Z,98358.00
2023-04-05T07:31:14.640Z,98359.00
2023-04-05T07:35:16.372Z,98363.00
2023-04-05T07:39:17.874Z,98366.00
2023-04-05T07:43:19.045Z,98353.00
2023-04-05T07:47:20.086Z,98365.00
2023-04-05T07:51:21.395Z,98361.00
2023-04-05T07:55:22.459Z,98357.00
2023-04-05T07:59:23.943Z,98373.00
2023-04-05T08:03:24.979Z,98368.00
2023-04-05T08:07:26.187Z,98356.00
2023-04-05T08:11:27.287Z,98358.00
2023-04-05T08:15:28.526Z,98353.00
2023-04-05T08:19:29.497Z,98358.00
2023-04-05T08:23:31.468Z,98354.00
2023-04-05T08:27:32.425Z,98358.00
2023-04-05T08:31:33.588Z,98346.00
2023-04-05T08:35:37.071Z,98342.00
2023-04-05T08:39:38.007Z,98350.00
2023-04-05T08:43:58.302Z,98339.00
2023-04-05T08:47:59.533Z,98353.00
2023-04-05T08:52:01.362Z,98344.00
2023-04-05T08:56:02.588Z,98334.00
2023-04-05T09:00:06.225Z,98357.00
2023-04-05T09:04:11.288Z,98342.00
2023-04-05T09:08:13.272Z,98345.00
2023-04-05T09:12:14.962Z,98335.00
2023-04-05T09:16:16.982Z,98341.00
2023-04-05T09:20:18.385Z,98339.00
2023-04-05T09:24:32.695Z,98342.00
2023-04-05T09:28:42.483Z,98352.00
2023-04-05T09:32:46.547Z,98341.00
2023-04-05T09:36:47.568Z,98343.00
2023-04-05T09:40:50.576Z,98341.00
2023-04-05T09:45:02.026Z,98341.00
2023-04-05T09:49:05.582Z,98336.00
2023-04-05T09:53:14.256Z,98335.00
2023-04-05T09:57:17.154Z,98337.00
2023-04-05T10:01:21.669Z,98338.00
2023-04-05T10:05:29.319Z,98337.00
2023-04-05T10:09:30.485Z,98339.00
2023-04-05T10:13:31.993Z,98332.00
2023-04-05T10:17:49.303Z,98330.00
2023-04-05T10:21:51.996Z,98331.00
2023-04-05T10:25:56.950Z,98320.00
2023-04-05T10:30:05.105Z,98331.00
2023-04-05T10:34:08.009Z,98325.00
2023-04-05T10:38:12.695Z,98310.00
2023-04-05T10:42:23.656Z,98320.00
2023-04-05T10:46:25.709Z,98321.00
2023-04-05T10:50:26.924Z,98308.00
2023-04-05T10:54:30.970Z,98300.00
2023-04-05T10:58:33.933Z,98312.00
2023-04-05T11:02:35.305Z,98302.00
2023-04-05T11:06:36.541Z,98300.00
2023-04-05T11:10:38.943Z,98300.00
2023-04-05T11:14:40.484Z,98302.00
2023-04-05T11:18:46.708Z,98301.00
2023-04-05T11:22:51.552Z,98288.00
2023-04-05T11:26:55.492Z,98303.00
2023-04-05T11:30:58.136Z,98289.00
2023-04-05T11:35:02.223Z,98288.00
2023-04-05T11:39:22.114Z,98284.00
2023-04-05T11:43:27.179Z,98284.00
2023-04-05T11:47:28.970Z,98286.00
2023-04-05T11:51:32.628Z,98273.00
2023-04-05T11:55:33.793Z,98259.00
2023-04-05T11:59:35.542Z,98265.00
2023-04-05T12:03:37.104Z,98257.00
2023-04-05T12:07:38.302Z,98263.00
2023-04-05T12:11:40.644Z,98248.00
2023-04-05T12:15:42.246Z,98256.00
2023-04-05T12:19:43.925Z,98246.00
2023-04-05T12:23:45.082Z,98253.00
2023-04-05T12:27:46.477Z,98238.00
2023-04-05T12:31:50.534Z,98236.00
2023-04-05T12:35:51.747Z,98245.00
2023-04-05T12:39:54.303Z,98235.00
2023-04-05T12:44:01.614Z,98233.00
2023-04-05T12:48:02.820Z,98227.00
2023-04-05T12:52:04.208Z,98228.00
2023-04-05T12:56:06.884Z,98232.00
2023-04-05T13:00:10.393Z,98218.00
2023-04-05T13:08:15.464Z,98211.00
2023-04-05T13:12:16.682Z,98214.00
2023-04-05T13:16:17.874Z,98218.00
2023-04-05T13:20:19.041Z,98201.00
2023-04-05T13:24:20.032Z,98200.00
2023-04-05T13:28:21.219Z,98196.00
2023-04-05T13:32:22.304Z,98190.00
2023-04-05T13:36:23.645Z,98195.00
2023-04-05T13:40:25.422Z,98190.00
2023-04-05T13:44:26.796Z,98186.00
2023-04-05T13:48:28.139Z,98180.00
2023-04-05T13:52:29.326Z,98174.00
2023-04-05T13:56:30.479Z,98176.00
2023-04-05T14:00:31.956Z,98176.00
2023-04-05T14:04:33.107Z,98161.00
2023-04-05T14:08:34.158Z,98178.00
2023-04-05T14:12:35.410Z,98160.00
2023-04-05T14:16:37.847Z,98153.00
2023-04-05T14:20:39.647Z,98156.00
2023-04-05T14:24:41.041Z,98149.00
2023-04-05T14:28:42.183Z,98157.00
2023-04-05T14:32:44.973Z,98134.00
2023-04-05T14:36:46.329Z,98137.00
2023-04-05T14:40:47.840Z,98130.00
2023-04-05T14:44:48.971Z,98133.00
2023-04-05T14:48:50.303Z,98129.00
2023-04-05T14:52:53.319Z,98122.00
2023-04-05T14:56:54.462Z,98122.00
2023-04-05T15:00:56.220Z,98117.00
2023-04-05T15:04:59.285Z,98124.00
2023-04-05T15:09:00.919Z,98113.00
2023-04-05T15:13:02.068Z,98115.00
2023-04-05T15:17:03.404Z,98116.00
2023-04-05T15:21:05.988Z,98116.00
2023-04-05T15:25:08.563Z,98115.00
2023-04-05T15:29:10.461Z,98111.00
2023-04-05T15:33:11.454Z,98112.00
2023-04-05T15:37:12.532Z,98107.00
2023-04-05T15:41:14.048Z,98106.00
2023-04-05T15:45:15.619Z,98108.00
2023-04-05T15:49:17.718Z,98107.00
2023-04-05T15:53:19.156Z,98106.00
2023-04-05T15:57:20.457Z,98112.00
2023-04-05T16:01:21.827Z,98108.00
2023-04-05T16:05:22.793Z,98108.00
2023-04-05T16:09:24.328Z,98109.00
2023-04-05T16:13:25.535Z,98096.00
2023-04-05T16:17:27.211Z,98102.00
2023-04-05T16:21:28.653Z,98103.00
2023-04-05T16:25:29.752Z,98103.00
2023-04-05T16:29:30.956Z,98078.00
2023-04-05T16:33:32.310Z,98093.00
2023-04-05T16:37:33.326Z,98087.00
2023-04-05T16:41:35.590Z,98093.00
2023-04-05T16:45:37.093Z,98087.00
2023-04-05T16:49:38.119Z,98090.00
2023-04-05T16:53:39.206Z,98082.00
2023-04-05T16:57:40.371Z,98085.00
2023-04-05T17:01:41.646Z,98090.00
2023-04-05T17:05:45.188Z,98097.00
2023-04-05T17:09:46.545Z,98095.00
2023-04-05T17:13:47.763Z,98082.00
2023-04-05T17:17:49.305Z,98091.00
2023-04-05T17:21:50.883Z,98087.00
2023-04-05T17:25:52.267Z,98090.00
2023-04-05T17:29:53.369Z,98084.00
2023-04-05T17:33:54.739Z,98093.00
2023-04-05T17:37:55.826Z,98096.00
2023-04-05T17:41:57.077Z,98099.00
2023-04-05T17:45:58.448Z,98094.00
2023-04-05T17:49:59.666Z,98100.00
2023-04-05T17:54:00.920Z,98093.00
2023-04-05T17:58:02.496Z,98088.00
2023-04-05T18:02:03.973Z,98089.00
2023-04-05T18:06:05.869Z,98092.00
2023-04-05T18:10:07.534Z,98092.00
2023-04-05T18:14:09.139Z,98094.00
2023-04-05T18:18:10.436Z,98085.00
2023-04-05T18:22:13.570Z,98094.00
2023-04-05T18:26:14.998Z,98099.00
2023-04-05T18:30:16.307Z,98095.00
2023-04-05T18:34:17.835Z,98110.00
2023-04-05T18:38:19.299Z,98099.00
2023-04-05T18:42:20.677Z,98107.00
2023-04-05T18:46:22.786Z,98110.00
2023-04-05T18:50:23.867Z,98113.00
2023-04-05T18:54:25.105Z,98120.00
2023-04-05T18:58:26.230Z,98116.00
2023-04-05T19:02:27.734Z,98120.00
2023-04-05T19:06:29.212Z,98118.00
2023-04-05T19:10:30.628Z,98137.00
2023-04-05T19:14:31.821Z,98135.00
2023-04-05T19:18:33.105Z,98135.00
2023-04-05T19:22:35.529Z,98130.00
2023-04-05T19:26:37.409Z,98130.00
2023-04-05T19:30:40.000Z,98132.00
2023-04-05T19:34:41.077Z,98139.00
2023-04-05T19:38:42.369Z,98131.00
2023-04-05T19:42:45.758Z,98123.00
2023-04-05T19:46:46.971Z,98132.00
2023-04-05T19:50:49.045Z,98142.00
2023-04-05T19:54:50.302Z,98144.00
2023-04-05T19:58:57.987Z,98133.00
2023-04-05T20:03:00.796Z,98134.00
2023-04-05T20:07:03.367Z,98149.00
2023-04-05T20:11:07.505Z,98141.00
2023-04-05T20:15:11.791Z,98130.00
2023-04-05T20:19:12.844Z,98134.00
2023-04-05T20:23:19.369Z,98132.00
2023-04-05T20:27:20.710Z,98131.00
2023-04-05T20:31:28.464Z,98126.00
2023-04-05T20:35:31.614Z,98117.00
2023-04-05T20:39:33.900Z,98121.00
2023-04-05T20:43:35.663Z,98112.00
2023-04-05T20:47:36.873Z,98111.00
2023-04-05T20:51:39.912Z,98117.00
2023-04-05T20:55:41.401Z,97999.00
2023-04-05T20:59:42.742Z,98105.00
2023-04-05T21:03:44.304Z,98104.00
2023-04-05T21:07:45.895Z,98102.00
2023-04-05T21:11:46.921Z,98105.00
2023-04-05T21:15:48.349Z,98103.00
2023-04-05T21:19:50.002Z,98100.00
2023-04-05T21:23:51.098Z,97912.00
2023-04-05T21:27:52.555Z,98108.00
2023-04-05T21:31:53.762Z,98098.00
2023-04-05T21:35:54.959Z,98094.00
2023-04-05T21:39:56.202Z,98095.00
2023-04-05T21:43:57.383Z,98085.00
2023-04-05T21:47:58.447Z,98090.00
2023-04-05T21:51:59.590Z,98088.00
2023-04-05T21:56:00.660Z,98089.00
2023-04-05T22:00:03.846Z,98096.00
2023-04-05T22:04:05.221Z,98085.00
2023-04-05T22:08:07.239Z,98095.00
2023-04-05T22:12:08.955Z,98092.00
2023-04-05T22:16:10.228Z,98091.00
2023-04-05T22:20:12.032Z,98087.00
2023-04-05T22:24:13.733Z,98090.00
2023-04-05T22:28:14.902Z,97902.00
2023-04-05T22:32:16.247Z,98085.00
2023-04-05T22:36:17.462Z,98087.00
2023-04-05T22:40:18.821Z,98082.00
2023-04-05T22:44:21.032Z,98086.00
2023-04-05T22:48:22.320Z,98085.00
2023-04-05T22:52:23.800Z,98082.00
2023-04-05T22:56:25.203Z,98078.00
2023-04-05T23:00:26.405Z,98074.00
2023-04-05T23:04:27.647Z,98077.00
2023-04-05T23:08:28.907Z,98072.00
2023-04-05T23:12:29.943Z,98068.00
2023-04-05T23:16:31.119Z,98078.00
2023-04-05T23:20:32.300Z,98068.00
2023-04-05T23:24:33.462Z,98076.00
2023-04-05T23:28:34.652Z,98075.00
2023-04-05T23:32:36.046Z,98073.00
2023-04-05T23:36:37.633Z,98064.00
2023-04-05T23:40:38.852Z,98061.00
2023-04-05T23:44:40.025Z,98065.00
2023-04-05T23:48:41.148Z,98062.00
2023-04-05T23:52:42.294Z,98050.00
2023-04-05T23:56:43.737Z,98049.00
